Greenville Farm
1800 N 800 E, North Logan
Last Weather Update:12/31/2011
Date
ETo
ETc
Rain
Irrigation
Req
Temp
Max
Temp
Min
Temp
Avg
Avg RH
Avg Wind
Avg Solar
inches
inches
incehs
inches
F
F
F
%
%
watts/m2
11/01/2011 0.06" 0.00" 0.23" -0.18" 44.7° 26.5° 37.2° 66.1% 5.1 MPH 9.0w/m2
11/02/2011 0.05" 0.00" 0.00" 0.00" 43.6° 20.5° 31.0° 61.5% 2.7 MPH 13.0w/m2
11/03/2011 0.05" 0.00" 0.00" 0.00" 48.2° 21.1° 32.3° 64.7% 2.9 MPH 11.8w/m2
11/04/2011 0.09" 0.00" 0.00" 0.00" 60.0° 26.7° 42.1° 52.5% 5.4 MPH 8.8w/m2
11/05/2011 0.02" 0.00" 0.14" -0.11" 33.6° 26.5° 29.3° 82.9% 0.7 MPH 6.5w/m2
11/06/2011 0.04" 0.00" 0.01" -0.01" 41.4° 25.9° 33.1° 66.9% 2.6 MPH 9.8w/m2
11/07/2011 0.03" 0.00" 0.02" -0.02" 41.9° 25.7° 32.3° 80.3% 2.5 MPH 8.5w/m2
11/08/2011 0.04" 0.00" 0.00" 0.00" 39.6° 20.4° 28.5° 71.5% 2.3 MPH 11.9w/m2
11/09/2011 0.04" 0.00" 0.00" 0.00" 42.0° 17.6° 27.9° 69.8% 2.5 MPH 11.7w/m2
11/10/2011 0.05" 0.00" 0.00" 0.00" 46.1° 18.1° 29.8° 65.7% 2.6 MPH 11.6w/m2
11/11/2011 0.04" 0.00" 0.00" 0.00" 45.4° 19.5° 31.4° 61.1% 2.4 MPH 9.5w/m2
11/12/2011 0.02" 0.00" 0.55" -0.44" 46.7° 22.1° 34.7° 74.2% 4.6 MPH 2.7w/m2
11/13/2011 0.03" 0.00" 0.23" -0.18" 43.4° 26.5° 33.7° 82.4% 2.3 MPH 4.2w/m2
11/14/2011 0.07" 0.00" 0.01" -0.01" 49.5° 34.3° 41.9° 40.8% 3.9 MPH 8.8w/m2
11/15/2011 0.06" 0.00" 0.00" 0.00" 44.8° 28.7° 37.8° 49.2% 3.8 MPH 10.5w/m2
11/16/2011 0.04" 0.00" 0.00" 0.00" 41.6° 21.8° 31.2° 56.4% 2.5 MPH 10.2w/m2
11/17/2011 0.05" 0.00" 0.00" 0.00" 51.9° 30.1° 40.2° 49.2% 3.3 MPH 3.5w/m2
11/18/2011 0.04" 0.00" 0.16" -0.13" 53.6° 28.4° 36.4° 78.7% 3.9 MPH 1.3w/m2
11/19/2011 0.02" 0.00" 0.45" -0.36" 36.5° 13.5° 24.8° 84.9% 1.1 MPH 5.8w/m2
11/20/2011 0.01" 0.00" 0.00" 0.00" 23.8° 10.6° 18.1° 90.8% 1.4 MPH 5.0w/m2
11/21/2011 0.01" 0.00" 0.05" -0.04" 36.9° 22.2° 27.5° 94.1% 2.0 MPH 4.3w/m2
11/22/2011 0.03" 0.00" 0.01" -0.01" 44.5° 23.1° 30.8° 93.4% 2.2 MPH 8.4w/m2
11/23/2011 0.03" 0.00" 0.00" 0.00" 40.5° 20.3° 30.2° 88.2% 1.6 MPH 9.6w/m2
11/24/2011 0.04" 0.00" 0.00" 0.00" 54.2° 26.3° 39.1° 63.1% 3.2 MPH 6.6w/m2
11/25/2011 0.04" 0.00" 0.00" 0.00" 46.0° 23.6° 36.4° 61.8% 5.1 MPH 6.4w/m2
11/26/2011 0.03" 0.00" 0.00" 0.00" 34.9° 17.6° 25.7° 66.8% 2.5 MPH 9.8w/m2
11/27/2011 0.03" 0.00" 0.00" 0.00" 39.3° 17.1° 26.6° 70.9% 2.2 MPH 9.4w/m2
11/28/2011 0.02" 0.00" 0.00" 0.00" 37.6° 22.5° 29.6° 79.5% 2.1 MPH 5.6w/m2
11/29/2011 0.03" 0.00" 0.00" 0.00" 43.3° 22.8° 31.4° 80.7% 2.3 MPH 8.6w/m2
11/30/2011 0.01" 0.00" 0.01" -0.01" 39.7° 27.0° 31.7° 82.6% 3.4 MPH 2.4w/m2
Totals: 1.13" 0.00" 1.87" -1.50" 60.0° 10.6° 32.1° 71.0% 2.8 MPH 7.8w/m2